createdAt,value
2022-11-16T00:00:47.917Z,7.98
2022-11-16T00:04:04.607Z,7.95
2022-11-16T00:07:13.192Z,7.87
2022-11-16T00:10:21.613Z,7.93
2022-11-16T00:13:38.610Z,7.84
2022-11-16T00:16:47.655Z,7.86
2022-11-16T00:19:56.134Z,7.83
2022-11-16T00:23:10.603Z,7.88
2022-11-16T00:26:13.452Z,7.92
2022-11-16T00:29:31.589Z,7.94
2022-11-16T00:32:46.580Z,7.94
2022-11-16T00:36:01.612Z,7.95
2022-11-16T00:39:10.584Z,7.95
2022-11-16T00:42:25.610Z,7.98
2022-11-16T00:45:34.120Z,7.94
2022-11-16T00:48:48.617Z,7.94
2022-11-16T00:52:03.607Z,7.94
2022-11-16T00:55:12.109Z,7.93
2022-11-16T00:58:26.611Z,7.91
2022-11-16T01:01:41.659Z,7.91
2022-11-16T01:04:56.593Z,7.93
2022-11-16T01:07:58.772Z,7.91
2022-11-16T01:11:14.595Z,7.94
2022-11-16T01:14:16.862Z,7.95
2022-11-16T01:17:31.615Z,7.85
2022-11-16T01:20:33.946Z,7.88
2022-11-16T01:23:48.601Z,7.93
2022-11-16T01:26:50.451Z,7.95
2022-11-16T01:30:05.585Z,7.97
2022-11-16T01:33:14.326Z,8.00
2022-11-16T01:36:22.583Z,8.00
2022-11-16T01:39:31.323Z,8.01
2022-11-16T01:42:47.615Z,7.99
2022-11-16T01:45:56.217Z,7.99
2022-11-16T01:49:14.595Z,8.03
2022-11-16T01:52:27.587Z,8.02
2022-11-16T01:55:43.596Z,7.95
2022-11-16T01:58:46.517Z,7.97
2022-11-16T02:02:09.591Z,7.94
2022-11-16T02:05:22.542Z,7.87
2022-11-16T02:08:58.581Z,7.92
2022-11-16T02:12:44.616Z,7.95
2022-11-16T02:16:12.820Z,7.97
2022-11-16T02:19:39.613Z,7.98
2022-11-16T02:23:02.588Z,7.99
2022-11-16T02:26:58.710Z,7.98
2022-11-16T02:30:14.599Z,8.01
2022-11-16T02:33:30.622Z,8.02
2022-11-16T02:36:47.598Z,8.02
2022-11-16T02:39:55.785Z,8.00
2022-11-16T02:43:15.603Z,7.99
2022-11-16T02:46:25.991Z,7.99
2022-11-16T02:49:45.569Z,8.03
2022-11-16T02:52:54.121Z,8.03
2022-11-16T02:56:02.585Z,8.04
2022-11-16T02:59:16.483Z,8.05
2022-11-16T03:02:35.569Z,8.06
2022-11-16T03:05:55.608Z,8.09
2022-11-16T03:09:05.863Z,8.10
2022-11-16T03:12:26.594Z,8.08
2022-11-16T03:15:39.212Z,8.06
2022-11-16T03:18:56.582Z,8.07
2022-11-16T03:22:17.589Z,8.09
2022-11-16T03:25:22.814Z,8.09
2022-11-16T03:28:46.599Z,8.06
2022-11-16T03:31:55.206Z,8.07
2022-11-16T03:35:17.572Z,8.10
2022-11-16T03:38:28.382Z,8.08
2022-11-16T03:41:39.585Z,8.07
2022-11-16T03:44:55.589Z,8.08
2022-11-16T03:47:57.589Z,8.11
2022-11-16T03:51:15.598Z,8.12
2022-11-16T03:54:17.504Z,8.13
2022-11-16T03:57:33.588Z,8.11
2022-11-16T04:00:48.630Z,8.07
2022-11-16T04:03:50.456Z,8.06
2022-11-16T04:07:05.621Z,8.02
2022-11-16T04:10:20.613Z,8.06
2022-11-16T04:13:36.196Z,8.09
2022-11-16T04:16:50.589Z,8.09
2022-11-16T04:19:59.274Z,8.12
2022-11-16T04:23:21.611Z,8.13
2022-11-16T04:26:36.566Z,8.13
2022-11-16T04:29:52.602Z,8.13
2022-11-16T04:33:01.189Z,8.11
2022-11-16T04:36:09.609Z,8.03
2022-11-16T04:39:24.584Z,7.97
2022-11-16T04:42:26.482Z,8.01
2022-11-16T04:45:41.605Z,7.98
2022-11-16T04:48:52.611Z,8.01
2022-11-16T04:52:01.135Z,8.00
2022-11-16T04:55:16.599Z,7.97
2022-11-16T04:58:25.668Z,8.02
2022-11-16T05:01:40.921Z,8.05
2022-11-16T05:04:50.595Z,8.06
2022-11-16T05:07:59.131Z,8.06
2022-11-16T05:11:07.591Z,8.06
2022-11-16T05:14:16.288Z,8.04
2022-11-16T05:17:33.579Z,8.07
2022-11-16T05:20:35.520Z,8.08
2022-11-16T05:23:50.596Z,8.09
2022-11-16T05:27:06.573Z,8.05
2022-11-16T05:30:15.589Z,8.02
2022-11-16T05:33:30.561Z,7.99
2022-11-16T05:36:38.615Z,7.98
2022-11-16T05:39:54.585Z,7.95
2022-11-16T05:43:09.599Z,7.99
2022-11-16T05:46:11.471Z,8.02
2022-11-16T05:49:26.611Z,7.98
2022-11-16T05:52:41.580Z,7.94
2022-11-16T05:55:56.628Z,7.99
2022-11-16T05:59:16.441Z,8.02
2022-11-16T06:02:24.833Z,8.03
2022-11-16T06:05:41.596Z,8.06
2022-11-16T06:08:49.598Z,8.04
2022-11-16T06:11:58.167Z,7.98
2022-11-16T06:15:13.618Z,8.03
2022-11-16T06:18:22.174Z,8.05
2022-11-16T06:21:36.594Z,8.08
2022-11-16T06:24:51.591Z,8.07
2022-11-16T06:28:01.135Z,8.06
2022-11-16T06:31:12.445Z,8.09
2022-11-16T06:34:27.602Z,8.08
2022-11-16T06:37:35.584Z,8.09
2022-11-16T06:41:01.584Z,8.10
2022-11-16T06:44:09.571Z,8.16
2022-11-16T06:47:18.079Z,8.15
2022-11-16T06:50:32.577Z,8.15
2022-11-16T06:53:34.439Z,8.17
2022-11-16T06:56:49.601Z,8.08
2022-11-16T07:00:12.576Z,8.11
2022-11-16T07:03:27.576Z,8.12
2022-11-16T07:06:42.600Z,8.14
2022-11-16T07:09:51.137Z,8.14
2022-11-16T07:13:08.602Z,8.15
2022-11-16T07:16:23.603Z,8.17
2022-11-16T07:19:31.593Z,8.22
2022-11-16T07:22:40.316Z,8.27
2022-11-16T07:25:55.607Z,8.30
2022-11-16T07:29:08.602Z,8.40
2022-11-16T07:32:17.142Z,8.39
2022-11-16T07:35:27.734Z,8.36
2022-11-16T07:38:38.474Z,8.37
2022-11-16T07:41:53.605Z,8.36
2022-11-16T07:45:08.593Z,8.36
2022-11-16T07:48:23.591Z,8.43
2022-11-16T07:51:38.602Z,8.44
2022-11-16T07:54:47.180Z,8.43
2022-11-16T07:57:55.489Z,8.45
2022-11-16T08:01:20.255Z,8.41
2022-11-16T08:04:35.820Z,8.42
2022-11-16T08:07:44.356Z,8.41
2022-11-16T08:10:52.651Z,8.47
2022-11-16T08:14:01.474Z,8.48
2022-11-16T08:17:11.668Z,8.50
2022-11-16T08:20:26.613Z,8.52
2022-11-16T08:23:41.594Z,8.53
2022-11-16T08:26:43.483Z,8.50
2022-11-16T08:29:58.605Z,8.54
2022-11-16T08:33:00.457Z,8.50
2022-11-16T08:36:20.408Z,8.55
2022-11-16T08:39:35.621Z,8.61
2022-11-16T08:42:44.362Z,8.62
2022-11-16T08:45:59.642Z,8.64
2022-11-16T08:49:08.163Z,8.66
2022-11-16T08:52:16.595Z,8.66
2022-11-16T08:55:32.565Z,8.67
2022-11-16T08:58:42.772Z,8.67
2022-11-16T09:02:04.651Z,8.63
2022-11-16T09:05:13.175Z,8.71
2022-11-16T09:08:21.668Z,8.77
2022-11-16T09:11:39.582Z,8.77
2022-11-16T09:14:54.579Z,8.80
2022-11-16T09:17:56.414Z,8.81
2022-11-16T09:21:11.605Z,8.84
2022-11-16T09:24:28.890Z,8.83
2022-11-16T09:27:31.659Z,8.81
2022-11-16T09:30:51.591Z,8.79
2022-11-16T09:34:07.582Z,8.83
2022-11-16T09:37:23.258Z,8.84
2022-11-16T09:40:38.305Z,8.90
2022-11-16T09:44:11.683Z,8.92
2022-11-16T09:47:26.783Z,9.00
2022-11-16T09:51:02.697Z,9.11
2022-11-16T09:54:42.617Z,9.13
2022-11-16T09:58:02.580Z,9.12
2022-11-16T10:01:56.578Z,9.07
2022-11-16T10:05:25.987Z,9.12
2022-11-16T10:08:47.589Z,9.10
2022-11-16T10:12:09.585Z,9.10
2022-11-16T10:15:24.603Z,9.10
2022-11-16T10:18:36.027Z,9.14
2022-11-16T10:22:01.593Z,9.15
2022-11-16T10:25:25.008Z,9.22
2022-11-16T10:29:11.764Z,9.19
2022-11-16T10:32:43.443Z,9.22
2022-11-16T10:35:53.107Z,9.27
2022-11-16T10:39:07.664Z,9.26
2022-11-16T10:42:19.503Z,9.31
2022-11-16T10:45:58.602Z,9.46
2022-11-16T10:49:22.586Z,9.36
2022-11-16T10:52:25.202Z,9.34
2022-11-16T10:55:39.594Z,9.35
2022-11-16T10:59:04.319Z,9.33
2022-11-16T11:02:29.646Z,9.31
2022-11-16T11:05:32.100Z,9.32
2022-11-16T11:08:46.594Z,9.33
2022-11-16T11:12:06.570Z,9.43
2022-11-16T11:15:26.520Z,9.43
2022-11-16T11:18:41.582Z,9.42
2022-11-16T11:21:56.602Z,9.42
2022-11-16T11:25:30.581Z,9.42
2022-11-16T11:28:47.831Z,9.46
2022-11-16T11:32:00.571Z,9.45
2022-11-16T11:35:28.601Z,9.46
2022-11-16T11:38:31.930Z,9.46
2022-11-16T11:41:49.612Z,9.43
2022-11-16T11:45:00.622Z,9.44
2022-11-16T11:48:24.586Z,9.46
2022-11-16T11:51:39.806Z,9.48
2022-11-16T11:54:58.582Z,9.47
2022-11-16T11:58:24.596Z,9.46
2022-11-16T12:02:03.578Z,9.43
2022-11-16T12:05:53.620Z,9.52
2022-11-16T12:09:29.569Z,9.52
2022-11-16T12:13:03.598Z,9.49
2022-11-16T12:16:38.587Z,9.48
2022-11-16T12:20:02.326Z,9.53
2022-11-16T12:23:30.571Z,9.55
2022-11-16T12:27:11.805Z,9.54
2022-11-16T12:30:22.273Z,9.52
2022-11-16T12:33:51.921Z,9.51
2022-11-16T12:37:36.965Z,9.50
2022-11-16T12:41:10.571Z,9.51
2022-11-16T12:44:50.571Z,9.49
2022-11-16T12:48:01.232Z,9.49
2022-11-16T12:51:53.637Z,9.50
2022-11-16T12:55:25.428Z,9.47
2022-11-16T12:58:58.731Z,9.46
2022-11-16T13:02:57.578Z,9.49
2022-11-16T13:06:23.585Z,9.46
2022-11-16T13:09:39.578Z,9.45
2022-11-16T13:12:59.514Z,9.42
2022-11-16T13:16:24.597Z,9.42
2022-11-16T13:19:27.512Z,9.45
2022-11-16T13:22:46.569Z,9.50
2022-11-16T13:26:04.978Z,9.50
2022-11-16T13:29:31.598Z,9.47
2022-11-16T13:33:05.576Z,9.46
2022-11-16T13:36:32.635Z,9.45
2022-11-16T13:40:07.566Z,9.42
2022-11-16T13:43:15.576Z,9.44
2022-11-16T13:46:57.431Z,9.42
2022-11-16T13:50:23.604Z,9.41
2022-11-16T13:57:12.591Z,9.41
2022-11-16T14:00:30.577Z,9.42
2022-11-16T14:03:40.731Z,9.42
2022-11-16T14:06:55.777Z,9.43
2022-11-16T14:10:05.747Z,9.43
2022-11-16T14:13:48.579Z,9.44
2022-11-16T14:16:51.624Z,9.43
2022-11-16T14:20:07.646Z,9.44
2022-11-16T14:23:31.331Z,9.45
2022-11-16T14:27:19.591Z,9.46
2022-11-16T14:30:34.387Z,9.46
2022-11-16T14:33:56.723Z,9.47
2022-11-16T14:37:11.611Z,9.43
2022-11-16T14:40:23.560Z,9.40
2022-11-16T14:43:52.580Z,9.40
2022-11-16T14:47:01.582Z,9.38
2022-11-16T14:50:34.345Z,9.38
2022-11-16T14:54:21.562Z,9.37
2022-11-16T14:57:36.637Z,9.39
2022-11-16T15:01:11.314Z,9.41
2022-11-16T15:04:22.168Z,9.40
2022-11-16T15:07:37.630Z,9.40
2022-11-16T15:10:52.688Z,9.42
2022-11-16T15:14:01.147Z,9.38
2022-11-16T15:17:21.615Z,9.32
2022-11-16T15:20:32.594Z,9.35
2022-11-16T15:24:23.337Z,9.29
2022-11-16T15:27:50.589Z,9.28
2022-11-16T15:31:08.566Z,9.21
2022-11-16T15:34:19.253Z,9.22
2022-11-16T15:37:35.541Z,9.21
2022-11-16T15:40:51.737Z,9.21
2022-11-16T15:44:15.121Z,9.24
2022-11-16T15:47:24.571Z,9.24
2022-11-16T15:50:33.333Z,9.24
2022-11-16T15:53:50.633Z,9.24
2022-11-16T15:57:13.606Z,9.22
2022-11-16T16:00:32.572Z,9.14
2022-11-16T16:04:01.716Z,9.16
2022-11-16T16:07:09.600Z,9.11
2022-11-16T16:10:24.561Z,9.05
2022-11-16T16:13:51.792Z,9.11
2022-11-16T16:17:07.557Z,9.11
2022-11-16T16:20:18.490Z,9.11
2022-11-16T16:23:33.827Z,9.14
2022-11-16T16:26:42.157Z,9.15
2022-11-16T16:29:58.596Z,9.17
2022-11-16T16:33:17.791Z,9.13
2022-11-16T16:36:32.606Z,9.14
2022-11-16T16:39:47.590Z,9.16
2022-11-16T16:42:49.430Z,9.14
2022-11-16T16:46:08.594Z,9.15
2022-11-16T16:49:10.639Z,9.13
2022-11-16T16:52:25.646Z,9.12
2022-11-16T16:55:41.580Z,9.12
2022-11-16T16:58:49.853Z,9.09
2022-11-16T17:02:05.561Z,9.13
2022-11-16T17:05:27.564Z,9.15
2022-11-16T17:08:36.438Z,9.16
2022-11-16T17:11:53.584Z,9.13
2022-11-16T17:15:02.324Z,9.16
2022-11-16T17:18:18.696Z,9.19
2022-11-16T17:21:33.565Z,9.19
2022-11-16T17:24:41.650Z,9.15
2022-11-16T17:27:50.269Z,9.20
2022-11-16T17:30:58.751Z,9.17
2022-11-16T17:34:10.794Z,9.19
2022-11-16T17:37:28.733Z,9.21
2022-11-16T17:40:37.593Z,9.19
2022-11-16T17:43:53.978Z,9.20
2022-11-16T17:47:03.106Z,9.22
2022-11-16T17:50:11.549Z,9.21
2022-11-16T17:53:19.941Z,9.17
2022-11-16T17:56:28.697Z,9.22
2022-11-16T17:59:43.952Z,9.24
2022-11-16T18:02:52.074Z,9.23
2022-11-16T18:06:16.766Z,9.20
2022-11-16T18:09:31.877Z,9.16
2022-11-16T18:12:34.327Z,9.16
2022-11-16T18:15:49.958Z,9.14
2022-11-16T18:19:01.317Z,9.14
2022-11-16T18:22:16.908Z,9.06
2022-11-16T18:25:25.415Z,9.05
2022-11-16T18:28:33.553Z,9.08
2022-11-16T18:31:48.958Z,9.09
2022-11-16T18:34:57.358Z,9.07
2022-11-16T18:38:06.040Z,9.08
2022-11-16T18:41:19.245Z,9.04
2022-11-16T18:44:34.971Z,9.05
2022-11-16T18:47:37.350Z,9.07
2022-11-16T18:50:52.563Z,9.05
2022-11-16T18:53:54.942Z,9.05
2022-11-16T18:57:09.953Z,9.07
2022-11-16T19:00:19.634Z,9.09
2022-11-16T19:03:29.019Z,9.10
2022-11-16T19:06:43.925Z,9.10
2022-11-16T19:09:52.115Z,9.05
2022-11-16T19:13:06.873Z,9.04
2022-11-16T19:16:16.991Z,9.08
2022-11-16T19:19:25.888Z,9.09
2022-11-16T19:22:42.809Z,9.08
2022-11-16T19:26:00.322Z,9.06
2022-11-16T19:29:09.920Z,9.04
2022-11-16T19:32:25.310Z,8.97
2022-11-16T19:35:33.973Z,8.98
2022-11-16T19:38:49.884Z,8.95
2022-11-16T19:41:58.541Z,8.95
2022-11-16T19:45:14.022Z,8.92
2022-11-16T19:48:22.502Z,8.91
2022-11-16T19:51:40.105Z,8.93
2022-11-16T19:54:48.559Z,8.95
2022-11-16T19:58:03.573Z,8.94
2022-11-16T20:01:24.663Z,8.96
2022-11-16T20:04:40.305Z,8.97
2022-11-16T20:07:56.951Z,8.94
2022-11-16T20:11:00.357Z,8.88
2022-11-16T20:14:17.965Z,8.83
2022-11-16T20:17:32.561Z,8.87
2022-11-16T20:20:34.786Z,8.89
2022-11-16T20:23:49.897Z,8.88
2022-11-16T20:27:05.420Z,8.87
2022-11-16T20:30:09.708Z,8.85
2022-11-16T20:33:24.567Z,8.85
2022-11-16T20:36:35.794Z,8.87
2022-11-16T20:39:51.808Z,8.86
2022-11-16T20:43:07.031Z,8.91
2022-11-16T20:46:11.077Z,8.89
2022-11-16T20:49:25.968Z,8.88
2022-11-16T20:52:38.216Z,8.91
2022-11-16T20:55:56.917Z,8.93
2022-11-16T20:59:12.400Z,8.93
2022-11-16T21:02:27.930Z,8.93
2022-11-16T21:05:44.603Z,8.93
2022-11-16T21:09:00.581Z,8.94
2022-11-16T21:12:02.427Z,8.96
2022-11-16T21:15:17.638Z,8.98
2022-11-16T21:18:30.739Z,8.97
2022-11-16T21:21:45.562Z,8.99
2022-11-16T21:24:54.052Z,8.95
2022-11-16T21:28:15.549Z,8.99
2022-11-16T21:31:36.657Z,8.99
2022-11-16T21:34:40.247Z,8.94
2022-11-16T21:37:55.567Z,8.93
2022-11-16T21:41:05.267Z,8.96
2022-11-16T21:44:13.590Z,8.97
2022-11-16T21:47:28.583Z,8.97
2022-11-16T21:50:36.546Z,8.96
2022-11-16T21:53:45.410Z,8.97
2022-11-16T21:57:00.548Z,8.96
2022-11-16T22:00:02.337Z,8.96
2022-11-16T22:03:24.560Z,8.96
2022-11-16T22:06:33.046Z,8.96
2022-11-16T22:09:47.565Z,8.93
2022-11-16T22:12:49.399Z,8.97
2022-11-16T22:16:04.556Z,8.95
2022-11-16T22:19:12.597Z,8.96
2022-11-16T22:22:21.559Z,8.94
2022-11-16T22:25:36.575Z,8.93
2022-11-16T22:28:51.563Z,8.93
2022-11-16T22:32:06.575Z,8.90
2022-11-16T22:35:21.568Z,8.90
2022-11-16T22:38:30.577Z,8.90
2022-11-16T22:41:39.141Z,8.94
2022-11-16T22:44:47.560Z,8.94
2022-11-16T22:48:02.583Z,8.92
2022-11-16T22:51:28.582Z,8.93
2022-11-16T22:54:43.555Z,8.91
2022-11-16T22:57:45.373Z,8.89
2022-11-16T23:01:00.552Z,8.89
2022-11-16T23:04:08.568Z,8.92
2022-11-16T23:07:30.585Z,8.92
2022-11-16T23:10:49.215Z,8.91
2022-11-16T23:13:52.996Z,8.86
2022-11-16T23:17:08.569Z,8.88
2022-11-16T23:20:16.245Z,8.89
2022-11-16T23:23:32.745Z,8.86
2022-11-16T23:26:34.765Z,8.93
2022-11-16T23:29:50.569Z,8.94
2022-11-16T23:32:58.574Z,8.85
2022-11-16T23:36:07.368Z,8.86
2022-11-16T23:39:22.543Z,8.86
2022-11-16T23:42:24.306Z,8.85
2022-11-16T23:45:39.538Z,8.82
2022-11-16T23:48:48.100Z,8.84
2022-11-16T23:52:02.575Z,8.88
2022-11-16T23:55:11.061Z,8.89
2022-11-16T23:58:25.567Z,8.91
